Time;durP1;ratioP1;P1;durP2;ratioP2;P2;SDS_P1;SDS_P2;PMS_P1;PMS_P2;Temp;Humidity;BMP_temperature;BMP_pressure;BME280_temperature;BME280_humidity;BME280_pressure;Samples;Min_cycle;Max_cycle;Signal;HPM_P1;HPM_P2
2021/06/17 00:00:13;;;;;;;11.10;8.50;;;23.50;71.70;;;;;;6187969;23;20404;-87
2021/06/17 00:02:40;;;;;;;13.03;8.70;;;23.50;71.80;;;;;;6188033;23;20407;-87
2021/06/17 00:05:08;;;;;;;8.57;7.70;;;23.50;71.50;;;;;;6187168;23;20451;-87
2021/06/17 00:07:35;;;;;;;10.40;8.17;;;23.50;71.40;;;;;;6186844;23;20895;-87
2021/06/17 00:10:04;;;;;;;12.90;9.10;;;23.50;71.20;;;;;;6188249;23;20404;-87
2021/06/17 00:12:30;;;;;;;12.40;9.17;;;23.40;71.50;;;;;;6210274;23;20397;-87
2021/06/17 00:14:57;;;;;;;11.30;8.50;;;23.30;71.50;;;;;;6189995;23;20916;-87
2021/06/17 00:17:24;;;;;;;13.50;8.27;;;23.30;71.70;;;;;;6187106;23;20403;-87
2021/06/17 00:19:50;;;;;;;11.33;8.53;;;23.30;71.70;;;;;;6202681;23;20387;-88
2021/06/17 00:22:17;;;;;;;9.73;8.77;;;23.20;71.50;;;;;;6203449;23;20489;-87
2021/06/17 00:24:44;;;;;;;10.10;7.93;;;23.20;71.60;;;;;;6188734;23;20407;-87
2021/06/17 00:27:12;;;;;;;10.73;8.87;;;23.10;71.80;;;;;;6189592;23;20494;-87
2021/06/17 00:29:39;;;;;;;12.43;9.20;;;23.10;72.10;;;;;;6187119;23;20410;-87
2021/06/17 00:32:06;;;;;;;10.67;9.47;;;23.00;71.90;;;;;;6187230;23;20426;-87
2021/06/17 00:34:33;;;;;;;10.87;8.50;;;23.00;72.10;;;;;;6196629;23;20469;-87
2021/06/17 00:36:59;;;;;;;10.53;7.80;;;23.00;72.10;;;;;;6205149;23;20392;-87
2021/06/17 00:39:26;;;;;;;9.73;7.40;;;23.00;72.10;;;;;;6187939;23;20415;-87
2021/06/17 00:41:53;;;;;;;9.47;7.70;;;23.00;71.80;;;;;;6186978;23;20762;-87
2021/06/17 00:44:21;;;;;;;12.23;8.30;;;23.00;71.80;;;;;;6187808;23;20471;-88
2021/06/17 00:46:48;;;;;;;11.00;8.03;;;22.90;71.90;;;;;;6188253;23;20414;-86
2021/06/17 00:49:14;;;;;;;9.50;7.37;;;22.80;71.80;;;;;;6187191;23;20407;-86
2021/06/17 00:51:41;;;;;;;9.17;8.03;;;22.70;72.80;;;;;;6186872;23;20951;-86
2021/06/17 00:54:08;;;;;;;10.47;8.53;;;22.70;72.90;;;;;;6187755;23;20798;-86
2021/06/17 00:56:34;;;;;;;11.73;8.17;;;22.70;73.00;;;;;;6187029;23;20740;-86
2021/06/17 00:59:03;;;;;;;10.60;7.70;;;22.70;73.10;;;;;;6186619;23;20407;-87
2021/06/17 01:01:31;;;;;;;8.57;7.37;;;22.60;73.30;;;;;;6192152;23;20426;-86
2021/06/17 01:03:58;;;;;;;9.90;8.90;;;22.50;73.80;;;;;;6193271;23;20399;-86
2021/06/17 01:06:24;;;;;;;10.63;8.30;;;22.60;73.90;;;;;;6198272;23;20460;-87
2021/06/17 01:08:59;;;;;;;7.63;6.77;;;22.60;74.00;;;;;;6192191;23;20406;-87
2021/06/17 01:11:31;;;;;;;11.60;7.87;;;22.60;73.70;;;;;;6187206;23;20425;-87
2021/06/17 01:14:03;;;;;;;11.27;8.83;;;22.60;73.90;;;;;;6186386;23;20941;-86
2021/06/17 01:16:36;;;;;;;10.27;7.50;;;22.50;74.20;;;;;;6186529;23;20398;-87
2021/06/17 01:19:14;;;;;;;11.03;7.80;;;22.60;74.20;;;;;;6200414;23;20417;-87
2021/06/17 01:22:02;;;;;;;9.90;7.60;;;22.60;73.90;;;;;;6208717;23;20447;-87
2021/06/17 01:24:49;;;;;;;8.33;7.20;;;22.50;74.40;;;;;;6191958;23;20409;-87
2021/06/17 01:27:36;;;;;;;9.00;8.00;;;22.40;74.40;;;;;;6116168;23;20611;-87
2021/06/17 01:30:09;;;;;;;9.87;7.83;;;22.40;74.60;;;;;;6193387;23;20396;-87
2021/06/17 01:32:37;;;;;;;10.80;7.90;;;22.30;74.70;;;;;;6186868;23;20386;-87
2021/06/17 01:35:08;;;;;;;10.00;7.90;;;22.30;74.70;;;;;;6187311;23;20438;-86
2021/06/17 01:37:38;;;;;;;9.37;7.60;;;22.20;74.60;;;;;;6190036;23;20402;-86
2021/06/17 01:40:06;;;;;;;10.10;7.43;;;22.20;74.70;;;;;;6188995;23;20405;-86
2021/06/17 01:42:33;;;;;;;9.80;7.33;;;22.20;74.80;;;;;;6196412;23;20409;-86
2021/06/17 01:45:02;;;;;;;8.63;7.23;;;22.20;74.70;;;;;;6188117;23;20399;-86
2021/06/17 01:47:31;;;;;;;13.43;8.23;;;22.20;75.10;;;;;;6187421;23;20413;-86
2021/06/17 01:49:59;;;;;;;9.73;7.73;;;22.10;75.20;;;;;;6188802;23;20429;-88
2021/06/17 01:52:29;;;;;;;9.83;8.20;;;22.10;75.10;;;;;;6186547;23;20481;-87
2021/06/17 01:54:58;;;;;;;9.73;7.90;;;22.00;75.60;;;;;;6187607;23;20426;-85
2021/06/17 01:57:26;;;;;;;11.37;7.60;;;22.00;76.00;;;;;;6188240;23;20413;-85
2021/06/17 01:59:54;;;;;;;7.67;6.33;;;21.80;76.60;;;;;;6195408;23;20414;-86
2021/06/17 02:02:21;;;;;;;8.77;7.57;;;21.70;77.10;;;;;;6187884;23;20902;-87
2021/06/17 02:04:52;;;;;;;9.03;7.90;;;21.70;77.60;;;;;;6189738;23;20432;-88
2021/06/17 02:07:22;;;;;;;8.63;7.73;;;21.70;77.50;;;;;;6189763;23;20714;-87
2021/06/17 02:09:51;;;;;;;10.23;8.60;;;21.70;77.50;;;;;;6187740;23;20406;-87
2021/06/17 02:12:18;;;;;;;11.00;8.53;;;21.60;77.70;;;;;;6201555;23;20426;-88
2021/06/17 02:14:46;;;;;;;10.70;9.00;;;21.50;78.40;;;;;;6211505;23;20515;-88
2021/06/17 02:17:14;;;;;;;11.53;9.23;;;21.50;78.60;;;;;;6204928;23;20961;-87
2021/06/17 02:19:41;;;;;;;10.43;9.33;;;21.50;79.30;;;;;;6200919;23;20394;-86
2021/06/17 02:22:10;;;;;;;11.07;8.87;;;21.50;80.00;;;;;;6199685;23;20434;-87
2021/06/17 02:24:39;;;;;;;12.03;10.17;;;21.40;80.30;;;;;;6187125;23;20413;-87
2021/06/17 02:27:09;;;;;;;14.23;11.30;;;21.40;80.60;;;;;;6188517;23;20477;-87
2021/06/17 02:29:41;;;;;;;15.00;10.80;;;21.40;81.00;;;;;;6196993;23;20387;-87
2021/06/17 02:32:10;;;;;;;12.20;10.17;;;21.40;81.90;;;;;;6192024;23;20424;-87
2021/06/17 02:34:38;;;;;;;15.90;10.60;;;21.40;81.10;;;;;;6186630;23;20779;-88
2021/06/17 02:37:05;;;;;;;11.20;9.67;;;21.30;79.80;;;;;;6186759;23;20463;-86
2021/06/17 02:39:35;;;;;;;10.40;9.30;;;21.30;79.90;;;;;;6187103;23;20417;-87
2021/06/17 02:42:03;;;;;;;9.70;8.70;;;21.30;79.80;;;;;;6205810;23;20413;-87
2021/06/17 02:44:32;;;;;;;9.80;8.77;;;21.30;79.40;;;;;;6195197;23;20413;-87
2021/06/17 02:46:59;;;;;;;9.60;8.03;;;21.30;79.60;;;;;;6188311;23;20406;-86
2021/06/17 02:49:26;;;;;;;9.97;8.33;;;21.20;79.90;;;;;;6196286;23;20402;-87
2021/06/17 02:51:53;;;;;;;10.93;9.10;;;21.30;80.00;;;;;;6191858;23;20478;-87
2021/06/17 02:54:19;;;;;;;11.03;9.83;;;21.30;80.20;;;;;;6198260;23;20435;-86
2021/06/17 02:57:07;;;;;;;10.80;9.73;;;21.10;81.00;;;;;;6194040;23;20416;-92
2021/06/17 02:59:44;;;;;;;13.07;10.23;;;21.10;82.40;;;;;;6197658;23;20709;-92
2021/06/17 03:02:20;;;;;;;11.43;9.20;;;21.00;82.90;;;;;;6196129;23;20415;-92
2021/06/17 03:04:49;;;;;;;12.00;10.57;;;21.00;83.80;;;;;;6201471;23;20388;-92
2021/06/17 03:07:21;;;;;;;15.53;11.40;;;21.00;84.10;;;;;;6197053;23;20737;-93
2021/06/17 03:09:54;;;;;;;11.80;10.00;;;21.00;84.30;;;;;;6195092;23;20403;-90
2021/06/17 03:12:27;;;;;;;11.50;9.13;;;21.00;84.60;;;;;;6197265;23;20413;-92
2021/06/17 03:14:56;;;;;;;11.53;10.33;;;21.00;84.10;;;;;;6195377;23;20670;-91
2021/06/17 03:17:24;;;;;;;12.57;10.40;;;20.90;84.10;;;;;;6196961;23;20434;-90
2021/06/17 03:19:56;;;;;;;17.40;11.80;;;20.90;85.00;;;;;;6195431;23;20396;-92
2021/06/17 03:49:00;;;;;;;11.60;9.10;;;20.90;85.10;;;;;;6127777;23;20461;-89
2021/06/17 03:52:09;;;;;;;12.27;9.13;;;20.90;85.60;;;;;;6113100;23;20499;-89
2021/06/17 04:01:49;;;;;;;12.27;10.97;;;20.70;86.50;;;;;;6073333;23;20415;-89
2021/06/17 04:04:15;;;;;;;13.60;9.87;;;20.80;87.00;;;;;;6194263;23;20403;-87
2021/06/17 04:06:43;;;;;;;15.13;12.43;;;20.70;87.10;;;;;;6193042;23;20400;-87
2021/06/17 04:09:10;;;;;;;12.63;11.13;;;20.60;87.90;;;;;;6186602;23;20419;-87
2021/06/17 04:11:40;;;;;;;13.13;11.07;;;20.60;88.60;;;;;;6185841;23;20977;-87
2021/06/17 04:14:07;;;;;;;13.43;9.97;;;20.70;88.10;;;;;;6186569;23;20447;-87
2021/06/17 04:16:35;;;;;;;9.43;8.27;;;20.70;87.20;;;;;;6187051;23;20414;-88
2021/06/17 04:19:03;;;;;;;9.20;8.30;;;20.70;87.50;;;;;;6186737;23;20720;-87
2021/06/17 04:21:31;;;;;;;9.90;7.37;;;20.70;85.80;;;;;;6186729;23;20426;-87
2021/06/17 04:24:04;;;;;;;7.80;6.90;;;20.70;85.20;;;;;;6199250;23;20432;-87
2021/06/17 04:26:31;;;;;;;10.30;6.03;;;20.70;84.50;;;;;;6197409;23;20395;-87
2021/06/17 04:28:58;;;;;;;10.87;7.53;;;20.80;84.60;;;;;;6199298;23;20740;-87
2021/06/17 04:31:34;;;;;;;10.13;7.63;;;20.80;84.40;;;;;;6207074;23;20428;-89
2021/06/17 04:34:03;;;;;;;13.17;8.33;;;20.90;84.70;;;;;;6210406;23;20450;-87
2021/06/17 04:36:29;;;;;;;10.50;8.63;;;20.90;84.80;;;;;;6202845;23;20411;-87
2021/06/17 04:38:56;;;;;;;13.30;8.63;;;20.90;85.00;;;;;;6196393;23;20408;-87
2021/06/17 04:41:23;;;;;;;13.03;11.63;;;21.00;84.90;;;;;;6210589;23;20421;-88
2021/06/17 04:43:50;;;;;;;13.70;11.07;;;21.10;84.50;;;;;;6203090;23;20417;-87
2021/06/17 04:46:19;;;;;;;14.17;9.67;;;21.10;84.30;;;;;;6192729;23;20415;-87
2021/06/17 04:48:48;;;;;;;11.90;10.47;;;21.20;84.00;;;;;;6189154;23;20415;-87
2021/06/17 04:51:17;;;;;;;13.70;9.17;;;21.30;84.60;;;;;;6194160;23;20432;-87
2021/06/17 04:53:44;;;;;;;11.03;9.20;;;21.30;84.90;;;;;;6188453;23;20924;-87
2021/06/17 04:56:12;;;;;;;12.83;9.57;;;21.40;84.80;;;;;;6186686;23;20408;-86
2021/06/17 04:58:39;;;;;;;14.40;9.77;;;21.40;84.60;;;;;;6187384;23;20416;-88
2021/06/17 05:01:08;;;;;;;10.93;9.83;;;21.50;84.70;;;;;;6190764;23;20436;-88
2021/06/17 05:03:36;;;;;;;13.47;10.00;;;21.40;84.50;;;;;;6186742;23;20460;-89
2021/06/17 05:06:03;;;;;;;11.10;9.97;;;21.50;84.40;;;;;;6185705;23;20408;-88
2021/06/17 05:11:16;;;;;;;12.03;10.27;;;21.70;84.10;;;;;;6188527;23;20424;-88
2021/06/17 05:13:43;;;;;;;12.30;8.20;;;21.80;83.60;;;;;;6187410;23;20516;-89
2021/06/17 05:16:10;;;;;;;15.27;7.80;;;21.80;83.00;;;;;;6197584;23;20476;-86
2021/06/17 05:18:37;;;;;;;13.23;7.53;;;21.90;82.20;;;;;;6186617;23;20909;-88
2021/06/17 05:21:04;;;;;;;9.03;6.30;;;22.00;81.10;;;;;;6186868;23;20430;-87
2021/06/17 05:23:32;;;;;;;9.03;6.50;;;22.40;80.60;;;;;;6187198;23;20422;-88
2021/06/17 05:25:59;;;;;;;9.43;7.17;;;23.10;77.90;;;;;;6188176;23;20996;-88
2021/06/17 05:28:28;;;;;;;8.70;6.60;;;23.90;75.30;;;;;;6193124;23;20412;-88
2021/06/17 05:30:57;;;;;;;8.83;7.30;;;24.70;72.30;;;;;;6190031;23;20436;-88
2021/06/17 05:33:24;;;;;;;10.97;8.20;;;25.50;69.40;;;;;;6189376;23;20420;-88
2021/06/17 05:35:51;;;;;;;9.47;8.47;;;26.10;66.50;;;;;;6187972;23;20944;-87
2021/06/17 05:38:19;;;;;;;9.43;6.83;;;26.60;63.90;;;;;;6193354;23;20480;-87
2021/06/17 05:40:48;;;;;;;14.43;9.17;;;26.70;61.70;;;;;;6186646;23;20430;-88
2021/06/17 05:43:15;;;;;;;13.10;8.50;;;27.00;61.80;;;;;;6185512;23;20410;-87
2021/06/17 05:45:43;;;;;;;11.40;8.80;;;27.40;60.70;;;;;;6185891;23;20394;-88
2021/06/17 05:48:10;;;;;;;11.70;8.20;;;27.80;59.90;;;;;;6185847;23;20441;-87
2021/06/17 05:50:36;;;;;;;23.10;9.90;;;28.30;58.70;;;;;;6186077;23;20406;-88
2021/06/17 05:53:04;;;;;;;16.73;9.27;;;28.80;57.60;;;;;;6185659;23;20416;-88
2021/06/17 05:55:30;;;;;;;14.60;8.90;;;29.20;56.80;;;;;;6185540;23;20452;-88
2021/06/17 05:57:58;;;;;;;20.50;8.27;;;29.60;55.70;;;;;;6184553;23;20410;-88
2021/06/17 06:00:25;;;;;;;10.30;7.30;;;29.90;54.40;;;;;;6186174;23;20413;-88
2021/06/17 06:02:52;;;;;;;13.43;7.33;;;30.40;53.50;;;;;;6188325;23;20922;-88
2021/06/17 06:05:19;;;;;;;7.97;7.00;;;30.20;52.30;;;;;;6211495;23;20410;-88
2021/06/17 06:07:46;;;;;;;11.60;8.13;;;30.50;52.10;;;;;;6209930;23;20413;-87
2021/06/17 06:10:16;;;;;;;11.00;6.77;;;30.30;52.30;;;;;;6206970;23;20408;-88
2021/06/17 06:12:42;;;;;;;17.63;7.80;;;30.30;52.30;;;;;;6192535;23;20481;-89
2021/06/17 06:15:12;;;;;;;11.67;6.67;;;30.40;51.60;;;;;;6184841;23;20441;-88
2021/06/17 06:17:39;;;;;;;9.47;7.13;;;30.70;51.30;;;;;;6186275;23;20401;-88
2021/06/17 06:20:07;;;;;;;12.97;7.90;;;31.30;50.30;;;;;;6199242;23;20407;-89
2021/06/17 06:22:34;;;;;;;11.60;7.67;;;31.50;49.50;;;;;;6186254;23;20425;-87
2021/06/17 06:25:01;;;;;;;10.03;6.93;;;31.80;49.10;;;;;;6185567;23;20397;-87
2021/06/17 06:27:28;;;;;;;14.67;8.00;;;32.00;48.40;;;;;;6188156;23;20912;-87
2021/06/17 06:29:56;;;;;;;13.43;7.33;;;32.20;48.50;;;;;;6189334;23;20402;-87
2021/06/17 06:32:23;;;;;;;8.53;6.57;;;32.50;47.30;;;;;;6186826;23;20909;-87
2021/06/17 06:34:51;;;;;;;10.40;6.87;;;32.50;47.10;;;;;;6196042;23;20437;-87
2021/06/17 06:37:18;;;;;;;12.57;6.57;;;32.80;46.70;;;;;;6207745;23;20720;-87
2021/06/17 06:39:45;;;;;;;7.60;5.67;;;32.50;46.60;;;;;;6190471;23;20409;-87
2021/06/17 06:42:11;;;;;;;11.60;6.60;;;32.40;46.90;;;;;;6185767;23;20476;-87
2021/06/17 06:44:38;;;;;;;6.27;5.63;;;32.00;47.00;;;;;;6185277;23;20762;-87
2021/06/17 06:47:05;;;;;;;7.30;5.60;;;31.90;47.60;;;;;;6186867;23;20473;-87
2021/06/17 06:49:33;;;;;;;7.63;5.33;;;32.20;47.00;;;;;;6187686;23;20893;-87
2021/06/17 06:52:00;;;;;;;7.23;5.47;;;32.70;46.80;;;;;;6186627;23;20421;-87
2021/06/17 06:54:26;;;;;;;8.70;6.27;;;33.10;46.40;;;;;;6186754;23;20402;-89
2021/06/17 06:56:53;;;;;;;10.67;5.70;;;33.40;45.70;;;;;;6187343;23;20429;-88
2021/06/17 06:59:20;;;;;;;6.87;5.50;;;33.40;45.30;;;;;;6187301;23;20406;-88
2021/06/17 07:01:47;;;;;;;10.33;5.30;;;33.40;45.50;;;;;;6187687;23;20938;-88
2021/06/17 07:04:13;;;;;;;9.67;6.50;;;33.40;45.10;;;;;;6187479;23;20416;-88
2021/06/17 07:06:42;;;;;;;12.73;8.27;;;33.90;45.00;;;;;;6187373;23;20406;-88
2021/06/17 07:09:08;;;;;;;8.67;5.77;;;34.40;43.90;;;;;;6188733;23;20410;-88
2021/06/17 07:11:36;;;;;;;7.87;5.37;;;34.60;43.80;;;;;;6186954;23;20425;-88
2021/06/17 07:14:04;;;;;;;12.40;6.37;;;34.60;43.70;;;;;;6187265;23;20496;-88
2021/06/17 07:16:31;;;;;;;8.33;6.57;;;34.80;43.70;;;;;;6185731;23;20445;-89
2021/06/17 07:18:58;;;;;;;10.40;6.20;;;35.40;43.10;;;;;;6186704;23;20751;-88
2021/06/17 07:21:24;;;;;;;11.60;7.13;;;36.00;42.10;;;;;;6187508;23;20733;-88
2021/06/17 07:23:53;;;;;;;13.10;7.23;;;36.40;41.60;;;;;;6188196;23;20777;-88
2021/06/17 07:26:22;;;;;;;6.20;5.10;;;36.40;41.30;;;;;;6186859;23;20893;-88
2021/06/17 07:28:49;;;;;;;6.20;5.33;;;36.70;41.00;;;;;;6185369;23;20409;-88
2021/06/17 07:31:16;;;;;;;8.90;5.93;;;36.20;41.70;;;;;;6186437;23;20422;-88
2021/06/17 07:33:43;;;;;;;10.23;6.03;;;36.60;41.50;;;;;;6188922;23;20410;-88
2021/06/17 07:36:09;;;;;;;9.53;5.60;;;37.10;40.90;;;;;;6187128;23;20821;-88
2021/06/17 07:38:36;;;;;;;14.30;7.80;;;37.50;40.40;;;;;;6186302;23;20425;-88
2021/06/17 07:41:05;;;;;;;11.63;5.90;;;38.00;39.60;;;;;;6191250;23;20425;-89
2021/06/17 07:43:32;;;;;;;10.40;5.70;;;38.50;39.00;;;;;;6187454;23;20900;-89
2021/06/17 07:45:59;;;;;;;6.93;5.80;;;39.20;38.30;;;;;;6186751;23;20398;-89
2021/06/17 07:48:26;;;;;;;7.37;6.00;;;39.40;37.70;;;;;;6189993;23;20512;-89
2021/06/17 07:50:53;;;;;;;7.30;5.60;;;39.70;36.90;;;;;;6190862;23;20433;-88
2021/06/17 07:53:20;;;;;;;9.00;5.90;;;39.60;37.10;;;;;;6191385;23;20411;-89
2021/06/17 07:55:47;;;;;;;8.83;5.93;;;39.30;37.20;;;;;;6199395;23;20442;-88
2021/06/17 07:58:15;;;;;;;7.77;5.70;;;39.10;37.20;;;;;;6188515;23;20409;-89
2021/06/17 08:00:42;;;;;;;9.33;5.80;;;39.20;37.10;;;;;;6186528;23;20441;-89
2021/06/17 08:03:09;;;;;;;7.97;5.97;;;39.60;36.70;;;;;;6186595;23;20410;-89
2021/06/17 08:05:37;;;;;;;7.73;4.97;;;39.40;36.40;;;;;;6186726;23;20429;-89
2021/06/17 08:08:04;;;;;;;10.40;5.33;;;39.00;36.70;;;;;;6186799;23;20432;-88
2021/06/17 08:10:31;;;;;;;9.70;5.13;;;38.80;37.70;;;;;;6186570;23;20464;-88
2021/06/17 08:12:57;;;;;;;6.17;4.83;;;39.40;37.60;;;;;;6198446;23;20386;-89
2021/06/17 08:15:26;;;;;;;8.77;5.00;;;39.80;36.20;;;;;;6212060;23;20430;-89
2021/06/17 08:17:54;;;;;;;6.60;4.60;;;40.10;35.20;;;;;;6192676;23;20402;-89
2021/06/17 08:20:21;;;;;;;8.03;5.10;;;40.30;35.10;;;;;;6204742;23;20386;-89
2021/06/17 08:22:48;;;;;;;6.10;4.53;;;40.00;34.80;;;;;;6191656;23;20413;-89
2021/06/17 08:25:15;;;;;;;8.20;4.73;;;40.40;35.00;;;;;;6185933;23;20401;-89
2021/06/17 08:27:42;;;;;;;7.70;4.50;;;40.80;34.50;;;;;;6186294;23;20420;-89
2021/06/17 08:30:14;;;;;;;6.67;4.33;;;40.90;34.30;;;;;;6186255;23;20795;-89
2021/06/17 08:32:42;;;;;;;7.60;4.50;;;40.00;34.70;;;;;;6192953;23;20415;-88
2021/06/17 08:35:10;;;;;;;5.67;4.17;;;40.60;34.80;;;;;;6202073;23;20533;-89
2021/06/17 08:37:36;;;;;;;7.77;4.33;;;40.90;34.10;;;;;;6200928;23;20486;-89
2021/06/17 08:40:04;;;;;;;6.37;4.60;;;40.70;33.90;;;;;;6194759;23;20425;-88
2021/06/17 08:42:32;;;;;;;5.40;4.50;;;39.90;34.50;;;;;;6188415;23;20468;-89
2021/06/17 08:45:01;;;;;;;6.63;5.37;;;40.00;35.10;;;;;;6200839;23;20477;-92
2021/06/17 08:47:31;;;;;;;8.23;5.10;;;40.30;33.90;;;;;;6199983;23;20406;-89
2021/06/17 08:50:01;;;;;;;8.90;4.77;;;40.80;34.30;;;;;;6189538;23;20409;-88
2021/06/17 08:52:34;;;;;;;9.90;5.03;;;41.40;33.30;;;;;;6187082;23;20441;-89
2021/06/17 08:55:18;;;;;;;5.60;4.67;;;41.20;33.20;;;;;;6192380;23;20405;-89
2021/06/17 08:57:48;;;;;;;7.60;5.47;;;41.50;33.30;;;;;;6185878;23;20393;-88
2021/06/17 09:00:37;;;;;;;7.90;4.70;;;41.80;32.90;;;;;;6194596;23;20441;-88
2021/06/17 09:03:06;;;;;;;7.53;5.10;;;42.20;31.90;;;;;;6207916;23;20390;-88
2021/06/17 09:05:36;;;;;;;6.67;4.90;;;42.20;32.00;;;;;;6186528;23;20402;-89
2021/06/17 09:08:03;;;;;;;8.73;5.50;;;42.20;32.50;;;;;;6187857;23;20401;-89
2021/06/17 09:10:31;;;;;;;8.20;5.27;;;42.50;31.40;;;;;;6206997;23;20402;-89
2021/06/17 09:13:02;;;;;;;7.47;5.10;;;42.80;31.10;;;;;;6212941;23;20418;-89
2021/06/17 09:15:32;;;;;;;7.67;5.00;;;43.10;30.60;;;;;;6212189;23;20418;-89
2021/06/17 09:18:13;;;;;;;5.23;4.63;;;44.00;30.10;;;;;;6210229;23;20458;-90
2021/06/17 09:20:44;;;;;;;8.17;5.40;;;44.40;29.20;;;;;;6195274;23;20421;-90
2021/06/17 09:23:22;;;;;;;5.73;4.30;;;45.50;28.60;;;;;;6190623;23;20390;-89
2021/06/17 09:25:49;;;;;;;6.33;4.57;;;45.50;27.80;;;;;;6186499;23;20394;-89
2021/06/17 09:28:18;;;;;;;6.73;4.53;;;44.80;28.10;;;;;;6195205;23;20431;-90
2021/06/17 09:30:45;;;;;;;5.30;4.30;;;45.40;28.30;;;;;;6201818;23;20413;-90
2021/06/17 09:33:14;;;;;;;6.87;4.37;;;45.90;28.00;;;;;;6210865;23;20461;-89
2021/06/17 09:35:54;;;;;;;11.17;5.17;;;45.40;27.70;;;;;;6210574;23;20465;-88
2021/06/17 09:38:22;;;;;;;7.30;5.30;;;43.40;29.20;;;;;;6199359;23;20394;-88
2021/06/17 09:40:53;;;;;;;6.70;5.20;;;41.50;30.80;;;;;;6188921;23;20429;-89
2021/06/17 09:43:23;;;;;;;6.47;3.90;;;41.60;31.90;;;;;;6185795;23;20437;-89
2021/06/17 09:45:57;;;;;;;6.67;5.13;;;42.90;31.10;;;;;;6185509;23;20394;-89
2021/06/17 09:48:32;;;;;;;6.47;3.90;;;44.20;29.60;;;;;;6186345;23;20390;-89
2021/06/17 09:51:20;;;;;;;9.10;4.93;;;45.30;28.20;;;;;;6188274;23;20425;-88
2021/06/17 09:53:47;;;;;;;5.17;4.47;;;45.50;27.70;;;;;;6186131;23;20413;-89
2021/06/17 09:56:15;;;;;;;9.13;4.33;;;45.40;27.80;;;;;;6185989;23;20434;-89
2021/06/17 09:58:44;;;;;;;7.70;4.50;;;45.40;27.70;;;;;;6187364;23;20409;-89
2021/06/17 10:01:15;;;;;;;8.73;5.00;;;46.80;26.70;;;;;;6185702;23;20429;-89
2021/06/17 10:03:41;;;;;;;5.63;4.33;;;47.30;26.50;;;;;;6185055;23;20398;-88
2021/06/17 10:06:19;;;;;;;8.03;4.03;;;47.50;26.40;;;;;;6186485;23;20445;-88
2021/06/17 10:08:46;;;;;;;5.90;4.23;;;47.60;25.70;;;;;;6185194;23;20385;-89
2021/06/17 10:11:13;;;;;;;7.33;3.50;;;48.30;25.40;;;;;;6185847;23;20426;-90
2021/06/17 10:13:40;;;;;;;5.23;3.80;;;48.80;24.70;;;;;;6185826;23;20398;-89
2021/06/17 10:18:37;;;;;;;6.30;4.77;;;48.10;25.40;;;;;;6193804;23;20414;-91
2021/06/17 10:25:01;;;;;;;4.90;4.40;;;48.20;24.30;;;;;;6184784;23;20437;-94
2021/06/17 10:27:39;;;;;;;5.73;4.50;;;49.00;24.30;;;;;;6164664;23;20444;-91
2021/06/17 10:30:11;;;;;;;5.20;4.37;;;49.30;23.70;;;;;;6162696;23;20441;-92
2021/06/17 10:32:40;;;;;;;4.90;3.80;;;49.50;23.90;;;;;;6171883;23;20470;-90
2021/06/17 10:35:09;;;;;;;5.93;4.23;;;49.30;24.20;;;;;;6171347;23;20996;-91
2021/06/17 10:37:50;;;;;;;4.80;4.20;;;48.80;23.20;;;;;;6161022;23;20399;-91
2021/06/17 10:40:23;;;;;;;5.30;4.33;;;49.20;23.70;;;;;;6160957;23;20461;-91
2021/06/17 10:42:51;;;;;;;5.23;4.10;;;49.70;23.20;;;;;;6161830;23;20421;-91
2021/06/17 10:45:35;;;;;;;7.53;4.30;;;50.00;23.00;;;;;;6166275;23;20453;-90
2021/06/17 10:48:08;;;;;;;5.00;4.47;;;50.50;22.80;;;;;;6160685;23;20395;-91
2021/06/17 10:50:53;;;;;;;5.00;4.30;;;50.80;22.50;;;;;;6163540;23;20391;-92
2021/06/17 10:53:53;;;;;;;4.97;4.47;;;50.40;22.50;;;;;;6179296;23;20489;-92
2021/06/17 10:56:38;;;;;;;5.33;4.83;;;50.80;22.80;;;;;;6163206;23;20517;-91
2021/06/17 10:59:06;;;;;;;4.50;4.10;;;50.30;22.50;;;;;;6161511;23;20458;-92
2021/06/17 11:01:39;;;;;;;5.73;4.63;;;50.40;22.20;;;;;;6160605;23;20414;-91
2021/06/17 11:04:20;;;;;;;4.53;4.13;;;50.10;22.60;;;;;;6159511;23;20456;-91
2021/06/17 11:07:15;;;;;;;5.70;5.20;;;50.50;22.70;;;;;;6180640;23;20509;-88
2021/06/17 11:09:56;;;;;;;5.00;4.10;;;50.00;22.40;;;;;;6183526;23;20398;-89
2021/06/17 11:12:49;;;;;;;5.07;4.57;;;49.40;23.10;;;;;;6172273;23;20426;-90
2021/06/17 11:15:35;;;;;;;5.37;4.40;;;49.70;22.60;;;;;;6184269;23;20478;-90
2021/06/17 11:18:02;;;;;;;7.50;4.60;;;48.80;23.00;;;;;;6197594;23;20442;-91
2021/06/17 11:20:37;;;;;;;7.90;5.30;;;48.60;23.40;;;;;;6202392;23;20394;-91
2021/06/17 11:23:04;;;;;;;6.70;5.20;;;49.60;23.10;;;;;;6203782;23;20465;-90
2021/06/17 11:25:32;;;;;;;9.57;4.67;;;48.50;24.00;;;;;;6199149;23;20421;-90
2021/06/17 11:28:02;;;;;;;5.40;4.53;;;48.30;24.40;;;;;;6200558;23;20506;-91
2021/06/17 11:30:57;;;;;;;6.53;5.00;;;48.90;24.30;;;;;;6200460;23;20448;-91
2021/06/17 11:33:34;;;;;;;5.80;4.87;;;48.90;23.90;;;;;;6167621;23;20436;-91
2021/06/17 11:36:05;;;;;;;5.30;4.30;;;49.30;23.60;;;;;;6200220;23;20762;-91
2021/06/17 11:38:34;;;;;;;7.53;5.40;;;48.90;23.60;;;;;;6198749;23;20873;-92
2021/06/17 11:41:11;;;;;;;7.13;4.97;;;48.80;23.40;;;;;;6198086;23;20394;-91
2021/06/17 11:43:41;;;;;;;5.60;4.60;;;49.00;23.60;;;;;;6198370;23;20390;-90
2021/06/17 11:46:20;;;;;;;5.43;4.90;;;49.60;23.60;;;;;;6198857;23;20472;-90
2021/06/17 11:48:54;;;;;;;6.93;4.93;;;50.40;23.00;;;;;;6211960;23;20409;-89
2021/06/17 11:51:22;;;;;;;5.40;4.37;;;50.60;22.50;;;;;;6197807;23;20409;-90
2021/06/17 11:53:50;;;;;;;5.50;4.90;;;49.90;22.80;;;;;;6193499;23;20751;-90
2021/06/17 11:56:31;;;;;;;8.63;4.83;;;48.90;23.50;;;;;;6189522;23;20422;-91
2021/06/17 11:59:24;;;;;;;5.43;4.83;;;48.80;23.90;;;;;;6188262;23;20416;-91
2021/06/17 12:02:09;;;;;;;7.40;4.60;;;48.80;23.50;;;;;;6188036;23;20432;-90
2021/06/17 12:04:40;;;;;;;5.27;4.67;;;48.30;23.60;;;;;;6186883;23;20414;-90
2021/06/17 12:07:07;;;;;;;5.57;4.80;;;47.80;23.70;;;;;;6189311;23;20512;-90
2021/06/17 12:09:34;;;;;;;5.80;5.20;;;47.90;23.80;;;;;;6188741;23;20417;-90
2021/06/17 12:12:17;;;;;;;5.67;5.07;;;47.60;24.60;;;;;;6191783;23;20401;-89
2021/06/17 12:14:45;;;;;;;5.37;4.87;;;48.20;24.00;;;;;;6204737;23;20378;-89
2021/06/17 12:17:12;;;;;;;5.43;4.93;;;48.80;23.80;;;;;;6205522;23;20446;-90
2021/06/17 12:19:39;;;;;;;6.00;4.80;;;49.30;23.40;;;;;;6196020;23;20398;-90
2021/06/17 12:22:07;;;;;;;5.80;4.70;;;50.50;22.40;;;;;;6196681;23;20410;-89
2021/06/17 12:24:35;;;;;;;7.47;4.57;;;50.30;21.60;;;;;;6199956;23;20406;-90
2021/06/17 12:27:02;;;;;;;7.00;4.57;;;50.30;21.80;;;;;;6194571;23;20859;-90
2021/06/17 12:29:28;;;;;;;6.60;4.90;;;50.00;22.00;;;;;;6192440;23;20402;-90
2021/06/17 12:31:57;;;;;;;5.00;4.07;;;49.90;22.10;;;;;;6200211;23;20393;-90
2021/06/17 12:34:29;;;;;;;5.20;4.70;;;50.30;21.80;;;;;;6198931;23;20406;-90
2021/06/17 12:37:02;;;;;;;5.10;4.50;;;49.80;22.00;;;;;;6188504;23;20472;-90
2021/06/17 12:39:29;;;;;;;5.10;4.57;;;48.40;23.00;;;;;;6190519;23;20397;-90
2021/06/17 12:41:56;;;;;;;6.67;5.10;;;47.80;23.40;;;;;;6194344;23;20406;-90
2021/06/17 12:44:35;;;;;;;7.40;6.10;;;48.40;23.30;;;;;;6208097;23;20877;-89
2021/06/17 12:47:06;;;;;;;8.33;4.53;;;48.30;23.00;;;;;;6204685;23;20449;-90
2021/06/17 12:52:26;;;;;;;6.30;4.53;;;47.00;23.30;;;;;;6211085;23;20397;-90
2021/06/17 12:54:53;;;;;;;6.17;4.23;;;46.60;23.50;;;;;;6199405;23;20406;-91
2021/06/17 12:57:22;;;;;;;6.50;4.70;;;46.90;23.90;;;;;;6192107;23;20413;-89
2021/06/17 12:59:55;;;;;;;4.67;4.17;;;47.00;23.50;;;;;;6191324;23;20402;-90
2021/06/17 13:02:46;;;;;;;5.13;4.57;;;46.10;24.00;;;;;;6191803;23;20736;-90
2021/06/17 13:05:15;;;;;;;5.00;4.03;;;46.40;23.80;;;;;;6188975;23;20422;-90
2021/06/17 13:07:58;;;;;;;6.13;5.30;;;47.40;23.10;;;;;;6190817;23;20442;-90
2021/06/17 13:10:26;;;;;;;6.80;5.00;;;47.70;22.90;;;;;;6192490;23;20401;-90
2021/06/17 13:12:55;;;;;;;5.23;4.73;;;47.30;23.00;;;;;;6191590;23;20901;-91
2021/06/17 13:15:24;;;;;;;5.20;4.70;;;47.80;22.90;;;;;;6189461;23;20418;-90
2021/06/17 13:17:54;;;;;;;6.77;4.43;;;47.50;23.10;;;;;;6188673;23;20425;-91
2021/06/17 13:20:30;;;;;;;5.40;4.13;;;48.30;22.70;;;;;;6190213;23;21006;-91
2021/06/17 13:22:59;;;;;;;6.27;4.90;;;49.00;22.60;;;;;;6188307;23;20382;-91
2021/06/17 13:25:29;;;;;;;6.00;4.33;;;47.90;22.90;;;;;;6190685;23;20449;-90
2021/06/17 13:27:56;;;;;;;5.23;4.10;;;46.90;23.20;;;;;;6188738;23;20763;-91
2021/06/17 13:30:26;;;;;;;5.70;4.63;;;45.60;24.00;;;;;;6187291;23;20489;-90
2021/06/17 13:32:55;;;;;;;5.93;3.87;;;45.10;24.30;;;;;;6188292;23;20401;-90
2021/06/17 13:35:21;;;;;;;5.07;4.00;;;46.10;24.00;;;;;;6188990;23;20438;-90
2021/06/17 13:37:48;;;;;;;6.10;4.57;;;47.70;23.20;;;;;;6192144;23;20420;-91
2021/06/17 13:40:15;;;;;;;5.70;4.67;;;47.80;22.60;;;;;;6190054;23;20410;-90
2021/06/17 13:42:43;;;;;;;6.20;4.17;;;48.10;21.90;;;;;;6197268;23;20468;-90